메인 페이지
METAR-TAF:

METAR-TAF

공항 :

Kahului, 하와이, 미국

위도: 20-53-33N, 경도: 156-26-13W, 고도: 16m

현재 날씨관측

예보는 13분 전, 03:54시(UTC)에 발표되었습니다.
북북동11kt
온도 23°C
습도 73%
기압 1016 hPa
시정: 16.1km
고도 4500ft 상공 구름 보통

METAR: PHOG 180354Z 02011KT 10SM SCT045 23/18 A3001 RMK AO2 SLP165 T02330183

시각: 18:07 (04:07 UTC)

예보

예보는 4 시간 39분 전, 23:28시(UTC)에 발표되었습니다.
예보 대상 시간: 18일 00시부터 18일 24시까지 (UTC)
북북동13kt
시정: 10km
고도 2500ft 상공 구름 조금
고도 5000ft 상공 구름 보통
18일 0600시부터 (UTC)
북북동8kt
시정: 10km
고도 2500ft 상공 구름 조금
고도 5000ft 상공 구름 보통
18일 2000시부터 (UTC)
북북동14kt
시정: 10km
고도 2500ft 상공 구름 조금
고도 5000ft 상공 구름 보통

TAF: PHOG 172328Z 1800/1824 02013KT P6SM FEW025 SCT050 FM180600 02008KT P6SM FEW025 SCT050 FM182000 03014KT P6SM FEW025 SCT050

4,000개 이상의 공항 관측 자료 및 예보 (METAR 및 TAF 보고).

지도상에서 검색 가능한 기상관측소가 노란 점과 빨간 점으로 표시되어 있습니다.

기상관측소 명을 보려면 표시 위로 마우스를 이동하세요.

날씨 관측과 예보를 보려면 클릭하세요.

지도 변경 : 확대하려면 엑스 표시가 있는 녹색 버튼, 축소하려면 빼기 표시가 있는 녹색 버튼, 다음 페이지의 지도를 보려면 녹색 화살표를 클릭하세요.


METAR-TAF: